FCA2MB LFTH-LFMV
Flight info
| Callsign | FCA2MB |
|---|---|
| Flight time | 0h 21m |
| Altitude | 10000 |
| Route | JULEE N163 MTG |
| Aircraft | E55P/M-SBDFGRWY/SU1 |
Departure
| Time | 2026-05-07 15:52 |
|---|---|
| Airport | Toulon-Hyères Airport (LFTH) |
Arrival
| Time | 2026-05-07 16:14 |
|---|---|
| Airport | Avignon Caumont airport (LFMV) |
| Time | Latitude | Longitude | Altitude | Speed | Heading |
|---|---|---|---|---|---|
| 2026-05-07 15:39 | 43.09134 | 6.15720 | 12 ft | 0 kts | 78° |
| 2026-05-07 15:49 | 43.09134 | 6.15723 | 12 ft | 0 kts | 77° |
| 2026-05-07 15:49 | 43.09140 | 6.15734 | 12 ft | 2 kts | 25° |
| 2026-05-07 15:49 | 43.09161 | 6.15701 | 12 ft | 7 kts | 292° |
| 2026-05-07 15:50 | 43.09153 | 6.15666 | 11 ft | 4 kts | 168° |
| 2026-05-07 15:50 | 43.09118 | 6.15674 | 11 ft | 5 kts | 173° |
| 2026-05-07 15:50 | 43.09089 | 6.15674 | 12 ft | 0 kts | 182° |
| 2026-05-07 15:50 | 43.09088 | 6.15674 | 12 ft | 0 kts | 182° |
| 2026-05-07 15:51 | 43.09080 | 6.15674 | 12 ft | 2 kts | 183° |
| 2026-05-07 15:51 | 43.09050 | 6.15662 | 12 ft | 7 kts | 213° |
| 2026-05-07 15:51 | 43.09013 | 6.15591 | 12 ft | 10 kts | 294° |
| 2026-05-07 15:51 | 43.09032 | 6.15558 | 12 ft | 0 kts | 315° |
| 2026-05-07 15:52 | 43.09134 | 6.15417 | 11 ft | 63 kts | 316° |
| 2026-05-07 15:52 | 43.09647 | 6.14730 | 107 ft | 130 kts | 312° |
| 2026-05-07 15:52 | 43.10305 | 6.13899 | 933 ft | 135 kts | 306° |
| 2026-05-07 15:52 | 43.10823 | 6.12881 | 1796 ft | 137 kts | 287° |
| 2026-05-07 15:53 | 43.10793 | 6.11644 | 2643 ft | 138 kts | 248° |
| 2026-05-07 15:53 | 43.10152 | 6.10599 | 3238 ft | 162 kts | 217° |
| 2026-05-07 15:53 | 43.09112 | 6.09621 | 3716 ft | 197 kts | 216° |
| 2026-05-07 15:53 | 43.08022 | 6.08515 | 4755 ft | 201 kts | 217° |
| 2026-05-07 15:54 | 43.06901 | 6.07329 | 5429 ft | 223 kts | 218° |
| 2026-05-07 15:54 | 43.05622 | 6.05975 | 6195 ft | 241 kts | 217° |
| 2026-05-07 15:54 | 43.04289 | 6.04575 | 7273 ft | 245 kts | 217° |
| 2026-05-07 15:54 | 43.02885 | 6.03091 | 7705 ft | 277 kts | 217° |
| 2026-05-07 15:55 | 43.01545 | 6.01056 | 7925 ft | 292 kts | 242° |
| 2026-05-07 15:55 | 43.01104 | 5.98334 | 7972 ft | 297 kts | 268° |
| 2026-05-07 15:55 | 43.00878 | 5.95584 | 7954 ft | 290 kts | 261° |
| 2026-05-07 15:55 | 43.00592 | 5.92896 | 7948 ft | 283 kts | 261° |
| 2026-05-07 15:56 | 43.00287 | 5.90265 | 7950 ft | 278 kts | 261° |
| 2026-05-07 15:56 | 42.99984 | 5.87652 | 7946 ft | 274 kts | 261° |
| 2026-05-07 15:56 | 42.99683 | 5.85072 | 7941 ft | 273 kts | 261° |
| 2026-05-07 15:56 | 42.99376 | 5.82441 | 7952 ft | 283 kts | 261° |
| 2026-05-07 15:57 | 42.99065 | 5.79798 | 7946 ft | 282 kts | 261° |
| 2026-05-07 15:57 | 42.98756 | 5.77161 | 7944 ft | 280 kts | 261° |
| 2026-05-07 15:57 | 42.98448 | 5.74541 | 7945 ft | 281 kts | 261° |
| 2026-05-07 15:57 | 42.98135 | 5.71874 | 7946 ft | 283 kts | 261° |
| 2026-05-07 15:58 | 42.97976 | 5.69217 | 7929 ft | 284 kts | 278° |
| 2026-05-07 15:58 | 42.98771 | 5.66800 | 7946 ft | 283 kts | 310° |
| 2026-05-07 15:58 | 43.00174 | 5.64919 | 7940 ft | 283 kts | 313° |
| 2026-05-07 15:58 | 43.01532 | 5.62959 | 7943 ft | 283 kts | 314° |
| 2026-05-07 15:59 | 43.02890 | 5.60998 | 7945 ft | 283 kts | 313° |
| 2026-05-07 15:59 | 43.04237 | 5.59046 | 7950 ft | 283 kts | 313° |
| 2026-05-07 15:59 | 43.05595 | 5.57076 | 7947 ft | 283 kts | 313° |
| 2026-05-07 15:59 | 43.06945 | 5.55114 | 7942 ft | 283 kts | 313° |
| 2026-05-07 16:00 | 43.08292 | 5.53156 | 7936 ft | 282 kts | 313° |
| 2026-05-07 16:00 | 43.09624 | 5.51219 | 7942 ft | 281 kts | 313° |
| 2026-05-07 16:00 | 43.10979 | 5.49248 | 7945 ft | 282 kts | 313° |
| 2026-05-07 16:00 | 43.12326 | 5.47287 | 7938 ft | 282 kts | 313° |
| 2026-05-07 16:01 | 43.13673 | 5.45324 | 7944 ft | 282 kts | 313° |
| 2026-05-07 16:01 | 43.15005 | 5.43383 | 7942 ft | 282 kts | 313° |
| 2026-05-07 16:01 | 43.16340 | 5.41431 | 7947 ft | 282 kts | 313° |
| 2026-05-07 16:01 | 43.17683 | 5.39469 | 7937 ft | 282 kts | 313° |
| 2026-05-07 16:02 | 43.19025 | 5.37507 | 7938 ft | 283 kts | 313° |
| 2026-05-07 16:02 | 43.20370 | 5.35539 | 7945 ft | 285 kts | 313° |
| 2026-05-07 16:02 | 43.21750 | 5.33520 | 7939 ft | 285 kts | 313° |
| 2026-05-07 16:02 | 43.23095 | 5.31549 | 7944 ft | 283 kts | 313° |
| 2026-05-07 16:03 | 43.24445 | 5.29571 | 7942 ft | 282 kts | 313° |
| 2026-05-07 16:03 | 43.25791 | 5.27596 | 7931 ft | 281 kts | 313° |
| 2026-05-07 16:03 | 43.27120 | 5.25649 | 7938 ft | 281 kts | 312° |
| 2026-05-07 16:03 | 43.28465 | 5.23674 | 7938 ft | 282 kts | 312° |
| 2026-05-07 16:04 | 43.29812 | 5.21692 | 7947 ft | 282 kts | 312° |
| 2026-05-07 16:04 | 43.31141 | 5.19738 | 7946 ft | 281 kts | 312° |
| 2026-05-07 16:04 | 43.32479 | 5.17767 | 7934 ft | 281 kts | 312° |
| 2026-05-07 16:04 | 43.33808 | 5.15808 | 7935 ft | 281 kts | 312° |
| 2026-05-07 16:05 | 43.35139 | 5.13846 | 7944 ft | 281 kts | 312° |
| 2026-05-07 16:05 | 43.36475 | 5.11878 | 7953 ft | 282 kts | 312° |
| 2026-05-07 16:05 | 43.37825 | 5.09882 | 7940 ft | 283 kts | 312° |
| 2026-05-07 16:05 | 43.39400 | 5.08355 | 7937 ft | 282 kts | 341° |
| 2026-05-07 16:06 | 43.41297 | 5.07719 | 7811 ft | 277 kts | 346° |
| 2026-05-07 16:06 | 43.43191 | 5.07060 | 7470 ft | 282 kts | 346° |
| 2026-05-07 16:06 | 43.45100 | 5.06400 | 7203 ft | 283 kts | 346° |
| 2026-05-07 16:06 | 43.47004 | 5.05732 | 7007 ft | 281 kts | 345° |
| 2026-05-07 16:07 | 43.48918 | 5.05056 | 6796 ft | 280 kts | 346° |
| 2026-05-07 16:07 | 43.50787 | 5.04397 | 6581 ft | 278 kts | 345° |
| 2026-05-07 16:07 | 43.52669 | 5.03732 | 6353 ft | 278 kts | 345° |
| 2026-05-07 16:07 | 43.54553 | 5.03066 | 6125 ft | 277 kts | 345° |
| 2026-05-07 16:08 | 43.56402 | 5.02411 | 5967 ft | 275 kts | 345° |
| 2026-05-07 16:08 | 43.58262 | 5.01751 | 5944 ft | 273 kts | 345° |
| 2026-05-07 16:08 | 43.60083 | 5.01104 | 5940 ft | 270 kts | 345° |
| 2026-05-07 16:08 | 43.61912 | 5.00455 | 5941 ft | 268 kts | 345° |
| 2026-05-07 16:09 | 43.63736 | 4.99808 | 5939 ft | 266 kts | 346° |
| 2026-05-07 16:09 | 43.65507 | 4.99179 | 5926 ft | 264 kts | 346° |
| 2026-05-07 16:09 | 43.67305 | 4.98541 | 5803 ft | 262 kts | 345° |
| 2026-05-07 16:09 | 43.69076 | 4.97911 | 5573 ft | 263 kts | 345° |
| 2026-05-07 16:10 | 43.70841 | 4.97284 | 5276 ft | 259 kts | 345° |
| 2026-05-07 16:10 | 43.72587 | 4.96662 | 4850 ft | 260 kts | 345° |
| 2026-05-07 16:10 | 43.74350 | 4.96034 | 4460 ft | 258 kts | 345° |
| 2026-05-07 16:10 | 43.76073 | 4.95420 | 4030 ft | 256 kts | 345° |
| 2026-05-07 16:11 | 43.77762 | 4.94746 | 3566 ft | 252 kts | 341° |
| 2026-05-07 16:11 | 43.79402 | 4.93933 | 2966 ft | 252 kts | 339° |
| 2026-05-07 16:11 | 43.80999 | 4.93104 | 2302 ft | 235 kts | 340° |
| 2026-05-07 16:11 | 43.82476 | 4.92465 | 1797 ft | 212 kts | 345° |
| 2026-05-07 16:12 | 43.83861 | 4.92045 | 1574 ft | 194 kts | 348° |
| 2026-05-07 16:12 | 43.85174 | 4.91734 | 1384 ft | 188 kts | 349° |
| 2026-05-07 16:12 | 43.86402 | 4.91402 | 1115 ft | 166 kts | 346° |
| 2026-05-07 16:12 | 43.87450 | 4.91094 | 835 ft | 145 kts | 347° |
| 2026-05-07 16:13 | 43.88388 | 4.90825 | 574 ft | 130 kts | 347° |
| 2026-05-07 16:13 | 43.89238 | 4.90590 | 351 ft | 119 kts | 348° |
| 2026-05-07 16:13 | 43.90039 | 4.90371 | 173 ft | 117 kts | 348° |
| 2026-05-07 16:13 | 43.90778 | 4.90172 | 124 ft | 90 kts | 348° |
| 2026-05-07 16:14 | 43.91175 | 4.90067 | 121 ft | 45 kts | 349° |
| 2026-05-07 16:14 | 43.91344 | 4.89993 | 121 ft | 5 kts | 326° |
| 2026-05-07 16:14 | 43.91344 | 4.90022 | 121 ft | 7 kts | 172° |
| 2026-05-07 16:14 | 43.91278 | 4.90039 | 121 ft | 11 kts | 169° |
| 2026-05-07 16:15 | 43.91181 | 4.90065 | 121 ft | 16 kts | 169° |
| 2026-05-07 16:15 | 43.91056 | 4.90098 | 122 ft | 20 kts | 169° |
| 2026-05-07 16:15 | 43.90902 | 4.90140 | 123 ft | 24 kts | 169° |
| 2026-05-07 16:15 | 43.90747 | 4.90181 | 124 ft | 13 kts | 169° |
| 2026-05-07 16:16 | 43.90659 | 4.90184 | 124 ft | 12 kts | 225° |
| 2026-05-07 16:16 | 43.90637 | 4.90069 | 124 ft | 10 kts | 259° |
| 2026-05-07 16:16 | 43.90631 | 4.90022 | 124 ft | 3 kts | 259° |
| 2026-05-07 16:16 | 43.90625 | 4.89983 | 124 ft | 4 kts | 259° |
| 2026-05-07 16:17 | 43.90618 | 4.89931 | 124 ft | 6 kts | 259° |
| 2026-05-07 16:17 | 43.90596 | 4.89909 | 124 ft | 4 kts | 163° |
| 2026-05-07 16:17 | 43.90579 | 4.89930 | 124 ft | 1 kts | 74° |
| 2026-05-07 16:17 | 43.90583 | 4.89948 | 124 ft | 1 kts | 46° |
| 2026-05-07 16:18 | 43.90588 | 4.89949 | 124 ft | 0 kts | 349° |